sensor_id;sensor_type;location;lat;lon;timestamp;P1;durP1;ratioP1;P2;durP2;ratioP2
66619;SDS011;53484;51.356;6.732;2023-01-10T00:01:36;17.15;;;5.93;;
66619;SDS011;53484;51.356;6.732;2023-01-10T00:04:04;15.87;;;4.70;;
66619;SDS011;53484;51.356;6.732;2023-01-10T00:06:30;20.20;;;6.05;;
66619;SDS011;53484;51.356;6.732;2023-01-10T00:08:57;17.42;;;4.82;;
66619;SDS011;53484;51.356;6.732;2023-01-10T00:11:23;17.85;;;4.85;;
66619;SDS011;53484;51.356;6.732;2023-01-10T00:14:06;15.18;;;4.07;;
66619;SDS011;53484;51.356;6.732;2023-01-10T00:16:33;13.43;;;4.23;;
66619;SDS011;53484;51.356;6.732;2023-01-10T00:19:01;12.85;;;4.93;;
66619;SDS011;53484;51.356;6.732;2023-01-10T00:21:28;12.25;;;4.53;;
66619;SDS011;53484;51.356;6.732;2023-01-10T00:23:56;14.73;;;4.30;;
66619;SDS011;53484;51.356;6.732;2023-01-10T00:26:23;18.77;;;3.60;;
66619;SDS011;53484;51.356;6.732;2023-01-10T00:28:50;15.20;;;3.50;;
66619;SDS011;53484;51.356;6.732;2023-01-10T00:31:16;13.43;;;3.83;;
66619;SDS011;53484;51.356;6.732;2023-01-10T00:33:42;13.57;;;3.60;;
66619;SDS011;53484;51.356;6.732;2023-01-10T00:36:10;17.95;;;3.88;;
66619;SDS011;53484;51.356;6.732;2023-01-10T00:38:37;14.27;;;3.75;;
66619;SDS011;53484;51.356;6.732;2023-01-10T00:41:04;29.97;;;4.30;;
66619;SDS011;53484;51.356;6.732;2023-01-10T00:43:52;10.80;;;3.60;;
66619;SDS011;53484;51.356;6.732;2023-01-10T00:46:20;13.93;;;3.15;;
66619;SDS011;53484;51.356;6.732;2023-01-10T00:48:47;13.57;;;3.15;;
66619;SDS011;53484;51.356;6.732;2023-01-10T00:51:13;12.93;;;3.40;;
66619;SDS011;53484;51.356;6.732;2023-01-10T00:53:41;10.97;;;3.43;;
66619;SDS011;53484;51.356;6.732;2023-01-10T00:56:07;12.07;;;3.67;;
66619;SDS011;53484;51.356;6.732;2023-01-10T00:58:33;10.23;;;2.95;;
66619;SDS011;53484;51.356;6.732;2023-01-10T01:00:59;20.60;;;4.47;;
66619;SDS011;53484;51.356;6.732;2023-01-10T01:03:26;11.50;;;3.53;;
66619;SDS011;53484;51.356;6.732;2023-01-10T01:05:52;15.67;;;3.27;;
66619;SDS011;53484;51.356;6.732;2023-01-10T01:08:18;15.13;;;3.67;;
66619;SDS011;53484;51.356;6.732;2023-01-10T01:10:46;16.00;;;3.17;;
66619;SDS011;53484;51.356;6.732;2023-01-10T01:13:13;11.63;;;3.85;;
66619;SDS011;53484;51.356;6.732;2023-01-10T01:15:40;12.88;;;3.30;;
66619;SDS011;53484;51.356;6.732;2023-01-10T01:18:07;10.23;;;2.90;;
66619;SDS011;53484;51.356;6.732;2023-01-10T01:20:33;12.15;;;2.92;;
66619;SDS011;53484;51.356;6.732;2023-01-10T01:23:00;11.15;;;2.80;;
66619;SDS011;53484;51.356;6.732;2023-01-10T01:25:26;15.43;;;2.88;;
66619;SDS011;53484;51.356;6.732;2023-01-10T01:27:54;20.23;;;4.00;;
66619;SDS011;53484;51.356;6.732;2023-01-10T01:30:20;14.37;;;2.87;;
66619;SDS011;53484;51.356;6.732;2023-01-10T01:32:46;9.43;;;2.90;;
66619;SDS011;53484;51.356;6.732;2023-01-10T01:35:13;9.73;;;2.33;;
66619;SDS011;53484;51.356;6.732;2023-01-10T01:37:39;14.13;;;2.95;;
66619;SDS011;53484;51.356;6.732;2023-01-10T01:40:06;18.50;;;3.30;;
66619;SDS011;53484;51.356;6.732;2023-01-10T01:42:33;11.17;;;2.33;;
66619;SDS011;53484;51.356;6.732;2023-01-10T01:47:47;12.73;;;2.85;;
66619;SDS011;53484;51.356;6.732;2023-01-10T01:50:15;11.38;;;2.40;;
66619;SDS011;53484;51.356;6.732;2023-01-10T01:52:44;16.02;;;2.92;;
66619;SDS011;53484;51.356;6.732;2023-01-10T01:55:12;12.93;;;2.40;;
66619;SDS011;53484;51.356;6.732;2023-01-10T01:57:38;9.45;;;2.60;;
66619;SDS011;53484;51.356;6.732;2023-01-10T02:00:05;18.52;;;3.22;;
66619;SDS011;53484;51.356;6.732;2023-01-10T02:02:33;12.68;;;2.60;;
66619;SDS011;53484;51.356;6.732;2023-01-10T02:05:02;10.57;;;2.50;;
66619;SDS011;53484;51.356;6.732;2023-01-10T02:07:30;12.27;;;2.50;;
66619;SDS011;53484;51.356;6.732;2023-01-10T02:09:59;9.30;;;2.15;;
66619;SDS011;53484;51.356;6.732;2023-01-10T02:12:26;11.40;;;2.05;;
66619;SDS011;53484;51.356;6.732;2023-01-10T02:14:54;11.43;;;2.88;;
66619;SDS011;53484;51.356;6.732;2023-01-10T02:17:20;11.30;;;2.60;;
66619;SDS011;53484;51.356;6.732;2023-01-10T02:19:49;17.63;;;3.63;;
66619;SDS011;53484;51.356;6.732;2023-01-10T02:22:29;12.18;;;2.88;;
66619;SDS011;53484;51.356;6.732;2023-01-10T02:25:07;11.25;;;2.53;;
66619;SDS011;53484;51.356;6.732;2023-01-10T02:27:38;11.85;;;3.13;;
66619;SDS011;53484;51.356;6.732;2023-01-10T02:30:18;9.77;;;3.05;;
66619;SDS011;53484;51.356;6.732;2023-01-10T02:32:50;17.13;;;3.23;;
66619;SDS011;53484;51.356;6.732;2023-01-10T02:35:26;12.55;;;2.60;;
66619;SDS011;53484;51.356;6.732;2023-01-10T02:37:57;12.95;;;2.50;;
66619;SDS011;53484;51.356;6.732;2023-01-10T02:40:25;17.73;;;3.38;;
66619;SDS011;53484;51.356;6.732;2023-01-10T02:42:57;9.10;;;3.03;;
66619;SDS011;53484;51.356;6.732;2023-01-10T02:45:28;14.07;;;2.67;;
66619;SDS011;53484;51.356;6.732;2023-01-10T02:47:57;13.98;;;2.40;;
66619;SDS011;53484;51.356;6.732;2023-01-10T02:50:35;16.33;;;2.88;;
66619;SDS011;53484;51.356;6.732;2023-01-10T02:53:08;13.02;;;3.03;;
66619;SDS011;53484;51.356;6.732;2023-01-10T02:55:38;13.63;;;2.80;;
66619;SDS011;53484;51.356;6.732;2023-01-10T02:58:10;12.40;;;2.70;;
66619;SDS011;53484;51.356;6.732;2023-01-10T03:00:43;14.77;;;2.20;;
66619;SDS011;53484;51.356;6.732;2023-01-10T03:03:18;10.80;;;3.20;;
66619;SDS011;53484;51.356;6.732;2023-01-10T03:05:49;9.85;;;2.33;;
66619;SDS011;53484;51.356;6.732;2023-01-10T03:08:19;20.67;;;3.60;;
66619;SDS011;53484;51.356;6.732;2023-01-10T03:10:49;16.07;;;3.13;;
66619;SDS011;53484;51.356;6.732;2023-01-10T03:13:18;17.35;;;3.50;;
66619;SDS011;53484;51.356;6.732;2023-01-10T03:15:46;8.82;;;2.50;;
66619;SDS011;53484;51.356;6.732;2023-01-10T03:18:14;8.35;;;2.35;;
66619;SDS011;53484;51.356;6.732;2023-01-10T03:20:44;16.45;;;2.92;;
66619;SDS011;53484;51.356;6.732;2023-01-10T03:23:11;11.93;;;2.87;;
66619;SDS011;53484;51.356;6.732;2023-01-10T03:25:40;10.88;;;2.88;;
66619;SDS011;53484;51.356;6.732;2023-01-10T03:28:07;15.68;;;3.33;;
66619;SDS011;53484;51.356;6.732;2023-01-10T03:30:38;15.82;;;3.30;;
66619;SDS011;53484;51.356;6.732;2023-01-10T03:33:05;19.13;;;3.50;;
66619;SDS011;53484;51.356;6.732;2023-01-10T03:35:33;17.43;;;3.30;;
66619;SDS011;53484;51.356;6.732;2023-01-10T03:38:07;15.25;;;3.88;;
66619;SDS011;53484;51.356;6.732;2023-01-10T03:40:35;10.02;;;3.20;;
66619;SDS011;53484;51.356;6.732;2023-01-10T03:43:07;17.75;;;3.42;;
66619;SDS011;53484;51.356;6.732;2023-01-10T03:45:54;16.08;;;2.88;;
66619;SDS011;53484;51.356;6.732;2023-01-10T03:48:24;17.13;;;2.83;;
66619;SDS011;53484;51.356;6.732;2023-01-10T03:50:52;11.40;;;2.33;;
66619;SDS011;53484;51.356;6.732;2023-01-10T03:53:20;12.60;;;3.15;;
66619;SDS011;53484;51.356;6.732;2023-01-10T03:55:46;13.13;;;2.95;;
66619;SDS011;53484;51.356;6.732;2023-01-10T03:58:13;15.00;;;2.65;;
66619;SDS011;53484;51.356;6.732;2023-01-10T04:00:41;15.30;;;3.27;;
66619;SDS011;53484;51.356;6.732;2023-01-10T04:03:07;10.18;;;2.95;;
66619;SDS011;53484;51.356;6.732;2023-01-10T04:05:35;14.57;;;3.50;;
66619;SDS011;53484;51.356;6.732;2023-01-10T04:08:01;17.42;;;3.20;;
66619;SDS011;53484;51.356;6.732;2023-01-10T04:10:29;14.80;;;3.47;;
66619;SDS011;53484;51.356;6.732;2023-01-10T04:12:57;14.13;;;2.53;;
66619;SDS011;53484;51.356;6.732;2023-01-10T04:15:24;12.13;;;3.30;;
66619;SDS011;53484;51.356;6.732;2023-01-10T04:17:50;11.82;;;3.22;;
66619;SDS011;53484;51.356;6.732;2023-01-10T04:20:16;17.50;;;2.60;;
66619;SDS011;53484;51.356;6.732;2023-01-10T04:22:43;18.38;;;2.83;;
66619;SDS011;53484;51.356;6.732;2023-01-10T04:25:09;15.53;;;2.23;;
66619;SDS011;53484;51.356;6.732;2023-01-10T04:27:37;22.25;;;3.03;;
66619;SDS011;53484;51.356;6.732;2023-01-10T04:30:04;8.10;;;1.92;;
66619;SDS011;53484;51.356;6.732;2023-01-10T04:32:30;11.93;;;2.90;;
66619;SDS011;53484;51.356;6.732;2023-01-10T04:34:57;16.65;;;2.60;;
66619;SDS011;53484;51.356;6.732;2023-01-10T04:37:23;17.40;;;2.67;;
66619;SDS011;53484;51.356;6.732;2023-01-10T04:39:49;12.07;;;3.10;;
66619;SDS011;53484;51.356;6.732;2023-01-10T04:42:16;15.32;;;2.92;;
66619;SDS011;53484;51.356;6.732;2023-01-10T04:44:43;13.43;;;2.50;;
66619;SDS011;53484;51.356;6.732;2023-01-10T04:47:10;15.93;;;2.67;;
66619;SDS011;53484;51.356;6.732;2023-01-10T04:49:36;16.40;;;2.80;;
66619;SDS011;53484;51.356;6.732;2023-01-10T04:52:02;15.68;;;2.63;;
66619;SDS011;53484;51.356;6.732;2023-01-10T04:54:29;13.68;;;2.60;;
66619;SDS011;53484;51.356;6.732;2023-01-10T04:56:55;12.57;;;2.80;;
66619;SDS011;53484;51.356;6.732;2023-01-10T04:59:21;20.13;;;2.88;;
66619;SDS011;53484;51.356;6.732;2023-01-10T05:01:49;11.97;;;2.33;;
66619;SDS011;53484;51.356;6.732;2023-01-10T05:04:15;10.70;;;2.22;;
66619;SDS011;53484;51.356;6.732;2023-01-10T05:06:41;9.02;;;2.17;;
66619;SDS011;53484;51.356;6.732;2023-01-10T05:09:08;14.75;;;3.22;;
66619;SDS011;53484;51.356;6.732;2023-01-10T05:11:34;15.15;;;2.88;;
66619;SDS011;53484;51.356;6.732;2023-01-10T05:14:01;13.57;;;2.47;;
66619;SDS011;53484;51.356;6.732;2023-01-10T05:16:27;17.20;;;2.88;;
66619;SDS011;53484;51.356;6.732;2023-01-10T05:18:55;15.60;;;2.72;;
66619;SDS011;53484;51.356;6.732;2023-01-10T05:21:21;13.20;;;2.42;;
66619;SDS011;53484;51.356;6.732;2023-01-10T05:23:48;15.65;;;2.90;;
66619;SDS011;53484;51.356;6.732;2023-01-10T05:26:15;18.00;;;3.57;;
66619;SDS011;53484;51.356;6.732;2023-01-10T05:28:42;18.73;;;2.50;;
66619;SDS011;53484;51.356;6.732;2023-01-10T05:31:09;16.30;;;2.60;;
66619;SDS011;53484;51.356;6.732;2023-01-10T05:33:36;15.40;;;2.33;;
66619;SDS011;53484;51.356;6.732;2023-01-10T05:36:04;21.02;;;3.10;;
66619;SDS011;53484;51.356;6.732;2023-01-10T05:38:31;15.83;;;2.70;;
66619;SDS011;53484;51.356;6.732;2023-01-10T05:40:58;14.88;;;2.95;;
66619;SDS011;53484;51.356;6.732;2023-01-10T05:43:24;13.25;;;2.97;;
66619;SDS011;53484;51.356;6.732;2023-01-10T05:45:51;10.85;;;2.10;;
66619;SDS011;53484;51.356;6.732;2023-01-10T05:48:17;19.05;;;2.78;;
66619;SDS011;53484;51.356;6.732;2023-01-10T05:50:44;18.00;;;3.50;;
66619;SDS011;53484;51.356;6.732;2023-01-10T05:53:12;13.38;;;2.58;;
66619;SDS011;53484;51.356;6.732;2023-01-10T05:55:38;13.38;;;2.63;;
66619;SDS011;53484;51.356;6.732;2023-01-10T05:58:04;15.82;;;2.97;;
66619;SDS011;53484;51.356;6.732;2023-01-10T06:00:31;18.63;;;3.65;;
66619;SDS011;53484;51.356;6.732;2023-01-10T06:02:57;11.07;;;2.43;;
66619;SDS011;53484;51.356;6.732;2023-01-10T06:05:23;18.85;;;3.35;;
66619;SDS011;53484;51.356;6.732;2023-01-10T06:07:50;18.38;;;3.28;;
66619;SDS011;53484;51.356;6.732;2023-01-10T06:10:17;18.75;;;2.35;;
66619;SDS011;53484;51.356;6.732;2023-01-10T06:12:44;16.48;;;2.85;;
66619;SDS011;53484;51.356;6.732;2023-01-10T06:15:13;15.53;;;2.40;;
66619;SDS011;53484;51.356;6.732;2023-01-10T06:17:40;27.30;;;4.15;;
66619;SDS011;53484;51.356;6.732;2023-01-10T06:20:08;14.48;;;2.67;;
66619;SDS011;53484;51.356;6.732;2023-01-10T06:22:35;15.30;;;2.75;;
66619;SDS011;53484;51.356;6.732;2023-01-10T06:25:01;24.73;;;3.00;;
66619;SDS011;53484;51.356;6.732;2023-01-10T06:27:29;19.53;;;3.13;;
66619;SDS011;53484;51.356;6.732;2023-01-10T06:29:55;18.75;;;3.53;;
66619;SDS011;53484;51.356;6.732;2023-01-10T06:32:23;18.20;;;3.40;;
66619;SDS011;53484;51.356;6.732;2023-01-10T06:34:49;20.73;;;3.03;;
66619;SDS011;53484;51.356;6.732;2023-01-10T06:37:16;24.25;;;3.28;;
66619;SDS011;53484;51.356;6.732;2023-01-10T06:39:42;23.93;;;3.23;;
66619;SDS011;53484;51.356;6.732;2023-01-10T06:42:10;25.17;;;3.58;;
66619;SDS011;53484;51.356;6.732;2023-01-10T06:44:37;17.90;;;2.90;;
66619;SDS011;53484;51.356;6.732;2023-01-10T06:47:04;24.65;;;3.72;;
66619;SDS011;53484;51.356;6.732;2023-01-10T06:49:30;19.05;;;3.63;;
66619;SDS011;53484;51.356;6.732;2023-01-10T06:51:56;22.43;;;3.23;;
66619;SDS011;53484;51.356;6.732;2023-01-10T06:54:24;22.48;;;2.97;;
66619;SDS011;53484;51.356;6.732;2023-01-10T06:56:51;17.23;;;2.67;;
66619;SDS011;53484;51.356;6.732;2023-01-10T06:59:17;15.45;;;3.10;;
66619;SDS011;53484;51.356;6.732;2023-01-10T07:01:45;26.30;;;3.67;;
66619;SDS011;53484;51.356;6.732;2023-01-10T07:04:11;22.03;;;2.93;;
66619;SDS011;53484;51.356;6.732;2023-01-10T07:06:38;26.23;;;3.63;;
66619;SDS011;53484;51.356;6.732;2023-01-10T07:09:05;14.15;;;2.50;;
66619;SDS011;53484;51.356;6.732;2023-01-10T07:11:32;20.33;;;3.00;;
66619;SDS011;53484;51.356;6.732;2023-01-10T07:13:59;16.58;;;3.35;;
66619;SDS011;53484;51.356;6.732;2023-01-10T07:16:25;17.20;;;2.80;;
66619;SDS011;53484;51.356;6.732;2023-01-10T07:18:53;23.23;;;2.83;;
66619;SDS011;53484;51.356;6.732;2023-01-10T07:21:19;21.08;;;2.92;;
66619;SDS011;53484;51.356;6.732;2023-01-10T07:23:46;21.20;;;3.47;;
66619;SDS011;53484;51.356;6.732;2023-01-10T07:26:12;16.83;;;2.65;;
66619;SDS011;53484;51.356;6.732;2023-01-10T07:28:41;17.97;;;3.33;;
66619;SDS011;53484;51.356;6.732;2023-01-10T07:31:08;23.00;;;3.53;;
66619;SDS011;53484;51.356;6.732;2023-01-10T07:33:34;22.65;;;2.70;;
66619;SDS011;53484;51.356;6.732;2023-01-10T07:36:02;17.38;;;3.00;;
66619;SDS011;53484;51.356;6.732;2023-01-10T07:38:28;18.35;;;2.42;;
66619;SDS011;53484;51.356;6.732;2023-01-10T07:40:55;25.77;;;3.60;;
66619;SDS011;53484;51.356;6.732;2023-01-10T07:43:21;19.20;;;2.70;;
66619;SDS011;53484;51.356;6.732;2023-01-10T07:45:47;18.58;;;3.35;;
66619;SDS011;53484;51.356;6.732;2023-01-10T07:48:14;16.95;;;3.15;;
66619;SDS011;53484;51.356;6.732;2023-01-10T07:50:40;22.05;;;3.20;;
66619;SDS011;53484;51.356;6.732;2023-01-10T07:53:08;18.10;;;3.70;;
66619;SDS011;53484;51.356;6.732;2023-01-10T07:55:34;14.30;;;3.10;;
66619;SDS011;53484;51.356;6.732;2023-01-10T07:58:03;18.80;;;3.13;;
66619;SDS011;53484;51.356;6.732;2023-01-10T08:00:31;20.67;;;2.72;;
66619;SDS011;53484;51.356;6.732;2023-01-10T08:02:57;19.88;;;3.47;;
66619;SDS011;53484;51.356;6.732;2023-01-10T08:05:24;16.63;;;3.03;;
66619;SDS011;53484;51.356;6.732;2023-01-10T08:07:50;25.92;;;3.70;;
66619;SDS011;53484;51.356;6.732;2023-01-10T08:10:19;21.80;;;2.72;;
66619;SDS011;53484;51.356;6.732;2023-01-10T08:12:45;18.50;;;2.65;;
66619;SDS011;53484;51.356;6.732;2023-01-10T08:15:12;16.55;;;2.95;;
66619;SDS011;53484;51.356;6.732;2023-01-10T08:17:38;18.30;;;3.30;;
66619;SDS011;53484;51.356;6.732;2023-01-10T08:20:05;16.98;;;4.10;;
66619;SDS011;53484;51.356;6.732;2023-01-10T08:22:31;27.10;;;4.13;;
66619;SDS011;53484;51.356;6.732;2023-01-10T08:24:58;19.50;;;4.13;;
66619;SDS011;53484;51.356;6.732;2023-01-10T08:27:26;26.95;;;4.70;;
66619;SDS011;53484;51.356;6.732;2023-01-10T08:29:53;23.53;;;3.90;;
66619;SDS011;53484;51.356;6.732;2023-01-10T08:32:19;32.20;;;4.07;;
66619;SDS011;53484;51.356;6.732;2023-01-10T08:34:46;25.60;;;3.83;;
66619;SDS011;53484;51.356;6.732;2023-01-10T08:37:12;29.30;;;3.97;;
66619;SDS011;53484;51.356;6.732;2023-01-10T08:39:39;23.08;;;3.25;;
66619;SDS011;53484;51.356;6.732;2023-01-10T08:42:05;22.23;;;4.13;;
66619;SDS011;53484;51.356;6.732;2023-01-10T08:44:33;20.85;;;3.35;;
66619;SDS011;53484;51.356;6.732;2023-01-10T08:46:59;20.95;;;3.78;;
66619;SDS011;53484;51.356;6.732;2023-01-10T08:49:26;27.40;;;4.80;;
66619;SDS011;53484;51.356;6.732;2023-01-10T08:51:52;22.83;;;2.60;;
66619;SDS011;53484;51.356;6.732;2023-01-10T08:54:18;21.80;;;3.43;;
66619;SDS011;53484;51.356;6.732;2023-01-10T08:56:45;33.30;;;4.82;;
66619;SDS011;53484;51.356;6.732;2023-01-10T08:59:11;32.55;;;5.75;;
66619;SDS011;53484;51.356;6.732;2023-01-10T09:01:39;24.38;;;3.90;;
66619;SDS011;53484;51.356;6.732;2023-01-10T09:04:05;27.20;;;3.88;;
66619;SDS011;53484;51.356;6.732;2023-01-10T09:06:32;28.33;;;4.90;;
66619;SDS011;53484;51.356;6.732;2023-01-10T09:08:58;25.13;;;4.05;;
66619;SDS011;53484;51.356;6.732;2023-01-10T09:11:24;32.60;;;8.10;;
66619;SDS011;53484;51.356;6.732;2023-01-10T09:13:51;26.77;;;5.68;;
66619;SDS011;53484;51.356;6.732;2023-01-10T09:16:17;22.65;;;3.17;;
66619;SDS011;53484;51.356;6.732;2023-01-10T09:18:45;25.47;;;5.00;;
66619;SDS011;53484;51.356;6.732;2023-01-10T09:21:12;28.23;;;5.88;;
66619;SDS011;53484;51.356;6.732;2023-01-10T09:23:38;32.20;;;5.68;;
66619;SDS011;53484;51.356;6.732;2023-01-10T09:26:05;28.55;;;4.72;;
66619;SDS011;53484;51.356;6.732;2023-01-10T09:28:31;23.70;;;4.22;;
66619;SDS011;53484;51.356;6.732;2023-01-10T09:30:57;22.90;;;4.43;;
66619;SDS011;53484;51.356;6.732;2023-01-10T09:33:25;27.58;;;2.92;;
66619;SDS011;53484;51.356;6.732;2023-01-10T09:35:55;28.42;;;3.92;;
66619;SDS011;53484;51.356;6.732;2023-01-10T09:38:22;25.10;;;3.22;;
66619;SDS011;53484;51.356;6.732;2023-01-10T09:40:51;21.73;;;3.08;;
66619;SDS011;53484;51.356;6.732;2023-01-10T09:43:25;22.73;;;3.13;;
66619;SDS011;53484;51.356;6.732;2023-01-10T09:45:54;16.80;;;2.90;;
66619;SDS011;53484;51.356;6.732;2023-01-10T09:48:24;20.42;;;2.85;;
66619;SDS011;53484;51.356;6.732;2023-01-10T09:50:58;17.13;;;2.85;;
66619;SDS011;53484;51.356;6.732;2023-01-10T09:53:26;18.08;;;2.33;;
66619;SDS011;53484;51.356;6.732;2023-01-10T09:55:55;14.77;;;2.60;;
66619;SDS011;53484;51.356;6.732;2023-01-10T09:58:23;21.45;;;3.22;;
66619;SDS011;53484;51.356;6.732;2023-01-10T10:00:52;17.13;;;2.47;;
66619;SDS011;53484;51.356;6.732;2023-01-10T10:03:21;17.23;;;2.55;;
66619;SDS011;53484;51.356;6.732;2023-01-10T10:05:49;27.25;;;3.28;;
66619;SDS011;53484;51.356;6.732;2023-01-10T10:08:17;23.80;;;4.13;;
66619;SDS011;53484;51.356;6.732;2023-01-10T10:10:47;25.25;;;3.78;;
66619;SDS011;53484;51.356;6.732;2023-01-10T10:13:18;16.25;;;2.50;;
66619;SDS011;53484;51.356;6.732;2023-01-10T10:15:47;21.40;;;3.28;;
66619;SDS011;53484;51.356;6.732;2023-01-10T10:18:17;19.60;;;2.35;;
66619;SDS011;53484;51.356;6.732;2023-01-10T10:20:50;14.80;;;3.80;;
66619;SDS011;53484;51.356;6.732;2023-01-10T10:23:24;14.10;;;2.80;;
66619;SDS011;53484;51.356;6.732;2023-01-10T10:25:55;19.67;;;3.03;;
66619;SDS011;53484;51.356;6.732;2023-01-10T10:31:10;18.05;;;2.53;;
66619;SDS011;53484;51.356;6.732;2023-01-10T10:33:46;16.10;;;2.73;;
66619;SDS011;53484;51.356;6.732;2023-01-10T10:36:17;20.85;;;2.90;;
66619;SDS011;53484;51.356;6.732;2023-01-10T10:38:47;23.80;;;3.08;;
66619;SDS011;53484;51.356;6.732;2023-01-10T10:41:14;18.35;;;2.67;;
66619;SDS011;53484;51.356;6.732;2023-01-10T10:43:41;20.10;;;3.03;;
66619;SDS011;53484;51.356;6.732;2023-01-10T10:46:12;22.60;;;3.30;;
66619;SDS011;53484;51.356;6.732;2023-01-10T10:48:39;21.52;;;2.63;;
66619;SDS011;53484;51.356;6.732;2023-01-10T10:51:07;17.17;;;2.45;;
66619;SDS011;53484;51.356;6.732;2023-01-10T10:53:34;17.08;;;2.30;;
66619;SDS011;53484;51.356;6.732;2023-01-10T10:56:03;16.65;;;2.78;;
66619;SDS011;53484;51.356;6.732;2023-01-10T10:58:30;13.80;;;2.23;;
66619;SDS011;53484;51.356;6.732;2023-01-10T11:00:56;21.67;;;2.60;;
66619;SDS011;53484;51.356;6.732;2023-01-10T11:03:27;22.10;;;3.35;;
66619;SDS011;53484;51.356;6.732;2023-01-10T11:05:55;18.70;;;2.67;;
66619;SDS011;53484;51.356;6.732;2023-01-10T11:08:22;21.77;;;2.72;;
66619;SDS011;53484;51.356;6.732;2023-01-10T11:10:51;24.83;;;2.73;;
66619;SDS011;53484;51.356;6.732;2023-01-10T11:13:24;16.45;;;2.40;;
66619;SDS011;53484;51.356;6.732;2023-01-10T11:15:50;16.90;;;2.78;;
66619;SDS011;53484;51.356;6.732;2023-01-10T11:18:17;26.52;;;4.03;;
66619;SDS011;53484;51.356;6.732;2023-01-10T11:20:46;21.25;;;3.15;;
66619;SDS011;53484;51.356;6.732;2023-01-10T11:23:20;19.00;;;2.37;;
66619;SDS011;53484;51.356;6.732;2023-01-10T11:25:46;16.58;;;2.88;;
66619;SDS011;53484;51.356;6.732;2023-01-10T11:28:13;20.23;;;2.85;;
66619;SDS011;53484;51.356;6.732;2023-01-10T11:30:44;14.50;;;1.83;;
66619;SDS011;53484;51.356;6.732;2023-01-10T11:33:16;17.42;;;2.42;;
66619;SDS011;53484;51.356;6.732;2023-01-10T11:35:54;20.10;;;2.73;;
66619;SDS011;53484;51.356;6.732;2023-01-10T11:38:21;18.50;;;2.10;;
66619;SDS011;53484;51.356;6.732;2023-01-10T11:40:52;18.55;;;2.50;;
66619;SDS011;53484;51.356;6.732;2023-01-10T11:43:23;23.23;;;2.83;;
66619;SDS011;53484;51.356;6.732;2023-01-10T11:45:53;17.17;;;3.17;;
66619;SDS011;53484;51.356;6.732;2023-01-10T11:48:20;19.67;;;2.67;;
66619;SDS011;53484;51.356;6.732;2023-01-10T11:50:47;18.65;;;2.95;;
66619;SDS011;53484;51.356;6.732;2023-01-10T11:53:26;13.15;;;1.92;;
66619;SDS011;53484;51.356;6.732;2023-01-10T11:55:54;17.00;;;2.53;;
66619;SDS011;53484;51.356;6.732;2023-01-10T11:58:20;15.32;;;2.50;;
66619;SDS011;53484;51.356;6.732;2023-01-10T12:00:47;18.60;;;2.90;;
66619;SDS011;53484;51.356;6.732;2023-01-10T12:03:25;12.55;;;2.63;;
66619;SDS011;53484;51.356;6.732;2023-01-10T12:05:53;16.60;;;2.83;;
66619;SDS011;53484;51.356;6.732;2023-01-10T12:08:28;16.80;;;2.75;;
66619;SDS011;53484;51.356;6.732;2023-01-10T12:10:58;19.38;;;2.45;;
66619;SDS011;53484;51.356;6.732;2023-01-10T12:13:26;22.73;;;2.90;;
66619;SDS011;53484;51.356;6.732;2023-01-10T12:15:57;18.05;;;2.17;;
66619;SDS011;53484;51.356;6.732;2023-01-10T12:18:40;16.80;;;2.03;;
66619;SDS011;53484;51.356;6.732;2023-01-10T12:21:07;15.80;;;2.20;;
66619;SDS011;53484;51.356;6.732;2023-01-10T12:23:35;17.67;;;2.83;;
66619;SDS011;53484;51.356;6.732;2023-01-10T12:26:05;20.20;;;4.07;;
66619;SDS011;53484;51.356;6.732;2023-01-10T12:28:32;16.15;;;2.30;;
66619;SDS011;53484;51.356;6.732;2023-01-10T12:30:59;13.30;;;2.50;;
66619;SDS011;53484;51.356;6.732;2023-01-10T12:33:26;14.57;;;1.95;;
66619;SDS011;53484;51.356;6.732;2023-01-10T12:35:55;15.10;;;2.17;;
66619;SDS011;53484;51.356;6.732;2023-01-10T12:38:24;22.03;;;2.50;;
66619;SDS011;53484;51.356;6.732;2023-01-10T12:41:11;18.05;;;2.45;;
66619;SDS011;53484;51.356;6.732;2023-01-10T12:44:00;18.50;;;2.22;;
66619;SDS011;53484;51.356;6.732;2023-01-10T12:46:47;20.20;;;2.45;;
66619;SDS011;53484;51.356;6.732;2023-01-10T12:49:16;17.98;;;2.10;;
66619;SDS011;53484;51.356;6.732;2023-01-10T12:51:45;18.43;;;3.07;;
66619;SDS011;53484;51.356;6.732;2023-01-10T12:54:13;21.50;;;3.80;;
66619;SDS011;53484;51.356;6.732;2023-01-10T12:56:41;16.08;;;3.05;;
66619;SDS011;53484;51.356;6.732;2023-01-10T12:59:10;24.55;;;2.90;;
66619;SDS011;53484;51.356;6.732;2023-01-10T13:01:40;17.23;;;2.03;;
66619;SDS011;53484;51.356;6.732;2023-01-10T13:04:08;15.30;;;2.27;;
66619;SDS011;53484;51.356;6.732;2023-01-10T13:06:36;18.42;;;2.50;;
66619;SDS011;53484;51.356;6.732;2023-01-10T13:09:05;15.90;;;2.42;;
66619;SDS011;53484;51.356;6.732;2023-01-10T13:11:34;13.15;;;2.00;;
66619;SDS011;53484;51.356;6.732;2023-01-10T13:14:02;15.18;;;2.25;;
66619;SDS011;53484;51.356;6.732;2023-01-10T13:16:32;17.10;;;2.33;;
66619;SDS011;53484;51.356;6.732;2023-01-10T13:19:02;12.32;;;2.20;;
66619;SDS011;53484;51.356;6.732;2023-01-10T13:21:29;19.55;;;2.30;;
66619;SDS011;53484;51.356;6.732;2023-01-10T13:23:56;15.73;;;2.47;;
66619;SDS011;53484;51.356;6.732;2023-01-10T13:26:25;15.15;;;1.90;;
66619;SDS011;53484;51.356;6.732;2023-01-10T13:28:52;12.20;;;1.90;;
66619;SDS011;53484;51.356;6.732;2023-01-10T13:31:22;21.50;;;2.20;;
66619;SDS011;53484;51.356;6.732;2023-01-10T13:33:50;17.35;;;3.30;;
66619;SDS011;53484;51.356;6.732;2023-01-10T13:36:18;19.20;;;2.92;;
66619;SDS011;53484;51.356;6.732;2023-01-10T13:38:46;12.48;;;1.60;;
66619;SDS011;53484;51.356;6.732;2023-01-10T13:41:14;16.70;;;2.13;;
66619;SDS011;53484;51.356;6.732;2023-01-10T13:44:03;12.57;;;1.95;;
66619;SDS011;53484;51.356;6.732;2023-01-10T13:55:21;20.13;;;2.73;;
66619;SDS011;53484;51.356;6.732;2023-01-10T13:57:48;15.18;;;1.80;;
66619;SDS011;53484;51.356;6.732;2023-01-10T14:00:23;11.18;;;1.73;;
66619;SDS011;53484;51.356;6.732;2023-01-10T14:03:08;14.43;;;1.70;;
66619;SDS011;53484;51.356;6.732;2023-01-10T14:05:55;17.35;;;2.42;;
66619;SDS011;53484;51.356;6.732;2023-01-10T14:08:21;17.63;;;2.43;;
66619;SDS011;53484;51.356;6.732;2023-01-10T14:10:47;11.98;;;2.35;;
66619;SDS011;53484;51.356;6.732;2023-01-10T14:13:29;11.02;;;1.70;;
66619;SDS011;53484;51.356;6.732;2023-01-10T14:15:57;13.05;;;1.77;;
66619;SDS011;53484;51.356;6.732;2023-01-10T14:18:23;9.95;;;1.90;;
66619;SDS011;53484;51.356;6.732;2023-01-10T14:20:54;16.37;;;2.10;;
66619;SDS011;53484;51.356;6.732;2023-01-10T14:23:21;16.35;;;2.47;;
66619;SDS011;53484;51.356;6.732;2023-01-10T14:25:52;13.00;;;1.88;;
66619;SDS011;53484;51.356;6.732;2023-01-10T14:28:20;9.05;;;2.00;;
66619;SDS011;53484;51.356;6.732;2023-01-10T14:30:52;17.35;;;2.50;;
66619;SDS011;53484;51.356;6.732;2023-01-10T14:33:21;12.57;;;2.00;;
66619;SDS011;53484;51.356;6.732;2023-01-10T14:35:49;11.32;;;2.08;;
66619;SDS011;53484;51.356;6.732;2023-01-10T14:38:17;12.30;;;2.60;;
66619;SDS011;53484;51.356;6.732;2023-01-10T14:40:45;11.52;;;2.05;;
66619;SDS011;53484;51.356;6.732;2023-01-10T14:43:14;12.55;;;2.15;;
66619;SDS011;53484;51.356;6.732;2023-01-10T14:45:42;9.60;;;1.63;;
66619;SDS011;53484;51.356;6.732;2023-01-10T14:48:16;10.27;;;1.88;;
66619;SDS011;53484;51.356;6.732;2023-01-10T14:50:44;15.65;;;2.35;;
66619;SDS011;53484;51.356;6.732;2023-01-10T14:53:14;14.13;;;2.35;;
66619;SDS011;53484;51.356;6.732;2023-01-10T14:55:49;15.27;;;2.25;;
66619;SDS011;53484;51.356;6.732;2023-01-10T14:58:16;12.57;;;2.10;;